Time;durP1;ratioP1;P1;durP2;ratioP2;P2;SDS_P1;SDS_P2;PMS_P1;PMS_P2;Temp;Humidity;BMP_temperature;BMP_pressure;BME280_temperature;BME280_humidity;BME280_pressure;Samples;Min_cycle;Max_cycle;Signal;HPM_P1;HPM_P2
2023/01/30 00:01:02;;;;;;;27.30;17.63;;;6.30;99.90;;;;;;4668818;30;20050;-91
2023/01/30 00:03:28;;;;;;;25.02;15.80;;;6.30;99.90;;;;;;4695904;30;20554;-90
2023/01/30 00:05:53;;;;;;;25.40;15.57;;;6.30;99.90;;;;;;4672882;30;20062;-91
2023/01/30 00:08:20;;;;;;;26.25;14.70;;;6.40;99.90;;;;;;4680274;30;20523;-90
2023/01/30 00:10:49;;;;;;;29.98;15.90;;;6.40;99.90;;;;;;4668973;30;20054;-90
2023/01/30 00:13:15;;;;;;;26.27;14.70;;;6.40;99.90;;;;;;4674457;30;20403;-90
2023/01/30 00:15:41;;;;;;;26.13;13.88;;;6.40;99.90;;;;;;4684569;30;20058;-90
2023/01/30 00:18:07;;;;;;;26.48;13.80;;;6.50;99.90;;;;;;4665844;30;20050;-90
2023/01/30 00:20:33;;;;;;;24.05;13.07;;;6.50;99.90;;;;;;4677658;30;20058;-90
2023/01/30 00:22:59;;;;;;;24.27;12.25;;;6.50;99.90;;;;;;4682376;30;20100;-91
2023/01/30 00:25:26;;;;;;;26.00;12.57;;;6.50;99.90;;;;;;4681805;30;20058;-90
2023/01/30 00:27:51;;;;;;;20.52;11.30;;;6.50;99.90;;;;;;4675100;30;20497;-91
2023/01/30 00:30:17;;;;;;;23.88;11.07;;;6.50;99.90;;;;;;4674548;30;20050;-91
2023/01/30 00:32:43;;;;;;;23.45;10.93;;;6.60;99.90;;;;;;4666839;30;20061;-91
2023/01/30 00:35:08;;;;;;;21.60;11.13;;;6.60;99.90;;;;;;4667097;30;20502;-91
2023/01/30 00:37:36;;;;;;;25.20;11.32;;;6.70;99.90;;;;;;4677016;30;20057;-90
2023/01/30 00:40:02;;;;;;;21.83;10.45;;;6.70;99.90;;;;;;4680508;30;20066;-92
2023/01/30 00:47:59;;;;;;;19.60;9.95;;;6.70;99.90;;;;;;4676025;30;20065;-91
2023/01/30 00:50:41;;;;;;;19.85;9.70;;;6.80;99.90;;;;;;4676240;30;20046;-89
2023/01/30 00:53:13;;;;;;;22.73;10.27;;;6.80;99.90;;;;;;4677767;25;20469;-92
2023/01/30 00:55:42;;;;;;;21.57;9.87;;;6.90;99.90;;;;;;4677343;30;20050;-90
2023/01/30 00:58:08;;;;;;;25.50;9.40;;;6.90;99.90;;;;;;4682023;30;20057;-90
2023/01/30 01:00:34;;;;;;;21.98;8.65;;;6.90;99.90;;;;;;4673329;30;20067;-91
2023/01/30 01:03:00;;;;;;;22.20;8.85;;;6.90;99.90;;;;;;4697810;30;20045;-92
2023/01/30 01:05:27;;;;;;;18.38;9.10;;;6.90;99.90;;;;;;4700164;30;20422;-90
2023/01/30 01:07:53;;;;;;;17.90;8.48;;;6.90;99.90;;;;;;4684846;30;20182;-90
2023/01/30 01:10:18;;;;;;;18.60;8.60;;;6.90;99.90;;;;;;4699819;30;20546;-91
2023/01/30 01:12:44;;;;;;;19.65;8.57;;;6.90;99.90;;;;;;4687210;30;20058;-90
2023/01/30 01:15:12;;;;;;;19.65;8.13;;;6.90;99.90;;;;;;4669369;30;20111;-89
2023/01/30 01:17:38;;;;;;;17.45;7.97;;;6.90;99.90;;;;;;4684695;30;20056;-90
2023/01/30 01:20:05;;;;;;;16.85;7.47;;;6.90;99.90;;;;;;4689042;30;20069;-89
2023/01/30 01:22:31;;;;;;;20.33;7.80;;;6.90;99.90;;;;;;4699667;30;20041;-91
2023/01/30 01:24:57;;;;;;;17.85;7.43;;;6.90;99.90;;;;;;4683708;30;20064;-91
2023/01/30 01:27:23;;;;;;;16.67;7.00;;;6.90;99.90;;;;;;4667723;30;20533;-91
2023/01/30 01:29:48;;;;;;;13.60;7.03;;;6.90;99.90;;;;;;4676564;30;20050;-90
2023/01/30 01:32:14;;;;;;;14.98;7.20;;;6.90;99.90;;;;;;4680106;30;20164;-92
2023/01/30 01:34:39;;;;;;;15.30;6.28;;;6.90;99.90;;;;;;4682667;30;20045;-91
2023/01/30 01:37:08;;;;;;;15.85;6.05;;;6.90;99.90;;;;;;4679916;30;20045;-89
2023/01/30 01:42:25;;;;;;;15.50;5.72;;;6.90;99.90;;;;;;4671193;30;20058;-91
2023/01/30 01:45:16;;;;;;;9.80;5.15;;;6.90;99.90;;;;;;4671982;30;20522;-89
2023/01/30 01:47:44;;;;;;;12.23;5.18;;;6.90;99.90;;;;;;4670764;30;20054;-89
2023/01/30 01:50:19;;;;;;;11.20;5.03;;;6.90;99.90;;;;;;4699532;30;20058;-89
2023/01/30 01:52:46;;;;;;;12.40;4.70;;;6.90;99.90;;;;;;4674477;30;20060;-89
2023/01/30 01:55:14;;;;;;;12.38;4.22;;;6.90;99.90;;;;;;4684520;30;20053;-89
2023/01/30 01:57:48;;;;;;;11.57;4.10;;;6.90;99.90;;;;;;4683269;30;20050;-90
2023/01/30 02:00:16;;;;;;;13.82;4.28;;;6.90;99.90;;;;;;4694444;30;20604;-88
2023/01/30 02:03:04;;;;;;;13.20;4.45;;;6.90;99.90;;;;;;4668125;30;20072;-90
2023/01/30 02:05:35;;;;;;;10.73;4.28;;;6.90;99.90;;;;;;4672326;30;20388;-89
2023/01/30 02:08:18;;;;;;;10.73;4.40;;;6.90;99.90;;;;;;4668143;30;20108;-90
2023/01/30 02:11:02;;;;;;;12.33;4.77;;;7.00;99.90;;;;;;4698479;30;20050;-91
2023/01/30 02:13:27;;;;;;;11.05;4.25;;;7.00;99.90;;;;;;4682215;30;20085;-89
2023/01/30 02:15:57;;;;;;;11.43;4.03;;;6.90;99.90;;;;;;4683912;30;20085;-90
2023/01/30 02:18:23;;;;;;;11.50;4.47;;;7.00;99.90;;;;;;4683672;30;20104;-89
2023/01/30 02:21:01;;;;;;;16.48;4.30;;;7.00;99.90;;;;;;4682192;30;20511;-90
2023/01/30 02:23:52;;;;;;;13.25;4.55;;;7.00;99.90;;;;;;4686234;30;20073;-92
2023/01/30 02:26:36;;;;;;;14.13;4.20;;;7.00;99.90;;;;;;4697773;30;20046;-89
2023/01/30 02:29:13;;;;;;;14.50;4.30;;;7.00;99.90;;;;;;4683204;30;20057;-90
2023/01/30 02:31:55;;;;;;;12.63;4.03;;;7.00;99.90;;;;;;4697117;30;20057;-90
2023/01/30 02:34:36;;;;;;;14.88;4.50;;;7.00;99.90;;;;;;4684347;30;20053;-89
2023/01/30 02:37:16;;;;;;;18.52;4.85;;;7.00;99.90;;;;;;4693213;30;20050;-90
2023/01/30 02:40:00;;;;;;;14.25;4.82;;;7.00;99.90;;;;;;4698086;30;20514;-89
2023/01/30 02:42:35;;;;;;;15.77;4.50;;;7.00;99.90;;;;;;4698282;30;20616;-89
2023/01/30 02:45:13;;;;;;;16.05;4.57;;;7.00;99.90;;;;;;4671702;30;20072;-90
2023/01/30 02:47:48;;;;;;;17.58;5.10;;;7.10;99.90;;;;;;4699939;30;20089;-89
2023/01/30 02:50:25;;;;;;;18.45;5.00;;;7.10;99.90;;;;;;4700931;30;20038;-89
2023/01/30 02:52:52;;;;;;;18.02;4.65;;;7.10;99.90;;;;;;4698175;30;20054;-90
2023/01/30 02:55:24;;;;;;;16.85;4.22;;;7.10;99.90;;;;;;4686220;30;20057;-91
2023/01/30 02:57:49;;;;;;;16.23;4.03;;;7.10;99.90;;;;;;4686701;30;20549;-89
2023/01/30 03:00:21;;;;;;;17.88;4.55;;;7.10;99.90;;;;;;4679121;30;20050;-89
2023/01/30 03:03:25;;;;;;;27.45;5.85;;;7.10;99.90;;;;;;4673788;30;20132;-92
2023/01/30 03:06:21;;;;;;;19.67;4.35;;;7.10;99.90;;;;;;4668595;30;20516;-89
2023/01/30 03:09:13;;;;;;;23.48;4.90;;;7.10;99.90;;;;;;4680543;30;20136;-90
2023/01/30 03:12:04;;;;;;;23.83;5.03;;;7.10;99.90;;;;;;4685755;30;20046;-90
2023/01/30 03:14:50;;;;;;;19.40;4.50;;;7.20;99.90;;;;;;4701578;30;20053;-89
2023/01/30 03:17:18;;;;;;;22.52;5.07;;;7.20;99.90;;;;;;4690651;30;20050;-90
2023/01/30 03:19:44;;;;;;;26.15;5.10;;;7.20;99.90;;;;;;4695200;30;20053;-90
2023/01/30 03:22:09;;;;;;;23.27;4.95;;;7.20;99.90;;;;;;4685732;30;20045;-90
2023/01/30 03:24:35;;;;;;;22.60;4.55;;;7.20;99.90;;;;;;4681649;30;20050;-90
2023/01/30 03:27:10;;;;;;;21.42;5.15;;;7.20;99.90;;;;;;4669881;30;20104;-89
2023/01/30 03:29:37;;;;;;;18.98;4.07;;;7.20;99.90;;;;;;4683012;30;20055;-89
2023/01/30 03:32:03;;;;;;;25.17;4.32;;;7.20;99.90;;;;;;4701903;30;20122;-90
2023/01/30 03:34:29;;;;;;;26.50;4.60;;;7.20;99.90;;;;;;4684101;30;20405;-88
2023/01/30 03:36:55;;;;;;;21.15;4.35;;;7.20;99.90;;;;;;4676835;30;20053;-89
2023/01/30 03:39:23;;;;;;;26.42;4.30;;;7.20;99.90;;;;;;4672153;30;20131;-88
2023/01/30 03:41:50;;;;;;;26.52;5.03;;;7.20;99.90;;;;;;4684012;30;20185;-90
2023/01/30 03:44:15;;;;;;;29.05;4.57;;;7.20;99.90;;;;;;4678586;30;20400;-88
2023/01/30 03:46:41;;;;;;;27.25;4.85;;;7.20;99.90;;;;;;4685981;30;20141;-88
2023/01/30 03:49:06;;;;;;;23.67;4.30;;;7.20;99.90;;;;;;4668507;30;20397;-90
2023/01/30 03:51:35;;;;;;;25.20;4.60;;;7.20;99.90;;;;;;4676449;30;20052;-89
2023/01/30 03:54:01;;;;;;;21.15;4.28;;;7.20;99.90;;;;;;4668670;30;20149;-88
2023/01/30 03:56:27;;;;;;;25.20;4.20;;;7.20;99.90;;;;;;4693367;30;20128;-89
2023/01/30 03:58:52;;;;;;;20.58;3.90;;;7.20;99.90;;;;;;4684554;30;20058;-89
2023/01/30 04:01:18;;;;;;;25.77;3.95;;;7.20;99.90;;;;;;4677866;30;20132;-88
2023/01/30 04:03:43;;;;;;;29.05;4.38;;;7.20;99.90;;;;;;4698033;30;20518;-90
2023/01/30 04:06:09;;;;;;;23.02;3.85;;;7.20;99.90;;;;;;4690492;30;20050;-88
2023/01/30 04:08:35;;;;;;;24.98;4.20;;;7.10;99.90;;;;;;4682762;30;20533;-90
2023/01/30 04:11:01;;;;;;;23.40;4.45;;;7.10;99.90;;;;;;4690356;30;20473;-89
2023/01/30 04:13:26;;;;;;;25.70;4.60;;;7.10;99.90;;;;;;4684054;30;20078;-88
2023/01/30 04:15:52;;;;;;;23.00;4.40;;;7.10;99.90;;;;;;4685135;30;20539;-89
2023/01/30 04:18:18;;;;;;;22.08;4.05;;;7.10;99.90;;;;;;4667858;30;20107;-89
2023/01/30 04:20:44;;;;;;;20.90;3.70;;;7.10;99.90;;;;;;4699363;30;20109;-89
2023/01/30 04:23:10;;;;;;;20.80;4.03;;;7.10;99.90;;;;;;4701108;30;20120;-89
2023/01/30 04:25:35;;;;;;;25.17;4.07;;;7.10;99.90;;;;;;4691958;30;20444;-88
2023/01/30 04:28:01;;;;;;;22.52;3.88;;;7.00;99.90;;;;;;4677658;30;20063;-89
2023/01/30 04:30:27;;;;;;;25.00;4.38;;;7.00;99.90;;;;;;4669489;30;20050;-89
2023/01/30 04:32:52;;;;;;;23.17;3.60;;;7.00;99.90;;;;;;4674239;30;20137;-88
2023/01/30 04:35:18;;;;;;;19.98;3.75;;;7.00;99.90;;;;;;4685465;30;20116;-88
2023/01/30 04:37:44;;;;;;;24.20;3.58;;;7.00;99.90;;;;;;4683783;30;20399;-90
2023/01/30 04:40:10;;;;;;;22.08;3.83;;;7.00;99.90;;;;;;4680906;30;20064;-89
2023/01/30 04:42:36;;;;;;;21.63;3.92;;;7.00;99.90;;;;;;4668400;30;20050;-89
2023/01/30 04:45:01;;;;;;;23.83;3.40;;;6.90;99.90;;;;;;4700324;30;20057;-89
2023/01/30 04:47:27;;;;;;;23.88;3.97;;;6.90;99.90;;;;;;4684250;30;20479;-89
2023/01/30 04:49:52;;;;;;;30.67;4.35;;;6.90;99.90;;;;;;4685198;30;20057;-90
2023/01/30 04:52:18;;;;;;;23.63;3.72;;;6.90;99.90;;;;;;4671159;30;20046;-88
2023/01/30 04:54:44;;;;;;;25.45;3.88;;;6.90;99.90;;;;;;4698719;30;20061;-89
2023/01/30 04:57:09;;;;;;;20.77;4.15;;;6.90;99.90;;;;;;4689151;30;20450;-89
2023/01/30 04:59:35;;;;;;;25.92;3.80;;;6.80;99.90;;;;;;4684796;30;20084;-90
2023/01/30 05:02:06;;;;;;;31.88;4.25;;;6.80;99.90;;;;;;4683505;24;20530;-89
2023/01/30 05:04:49;;;;;;;21.25;4.13;;;6.80;99.90;;;;;;4660773;30;20065;-88
2023/01/30 05:07:23;;;;;;;21.10;3.90;;;6.80;99.90;;;;;;4672345;30;20528;-88
2023/01/30 05:09:55;;;;;;;21.73;4.20;;;6.70;99.90;;;;;;4650804;30;20420;-87
2023/01/30 05:12:30;;;;;;;26.30;4.30;;;6.70;99.90;;;;;;4665704;30;20063;-88
2023/01/30 05:15:05;;;;;;;26.10;4.80;;;6.70;99.90;;;;;;4662347;30;20428;-88
2023/01/30 05:17:32;;;;;;;26.35;4.45;;;6.70;99.90;;;;;;4678985;30;20049;-89
2023/01/30 05:20:01;;;;;;;27.63;3.88;;;6.70;99.90;;;;;;4666381;30;20385;-88
2023/01/30 05:22:38;;;;;;;27.33;4.20;;;6.70;99.90;;;;;;4665177;30;20069;-87
2023/01/30 05:25:16;;;;;;;21.92;3.65;;;6.70;99.90;;;;;;4658473;30;20116;-89
2023/01/30 05:27:48;;;;;;;25.02;4.35;;;6.70;99.90;;;;;;4663352;30;20404;-90
2023/01/30 05:30:28;;;;;;;23.63;3.95;;;6.60;99.90;;;;;;4682347;25;20118;-90
2023/01/30 05:33:02;;;;;;;31.90;4.25;;;6.60;99.90;;;;;;4667696;30;20484;-90
2023/01/30 05:35:30;;;;;;;28.15;5.45;;;6.60;99.90;;;;;;4682122;30;20061;-89
2023/01/30 05:38:01;;;;;;;24.60;4.10;;;6.60;99.90;;;;;;4678357;30;20060;-88
2023/01/30 05:40:32;;;;;;;27.40;4.05;;;6.50;99.90;;;;;;4660688;30;20047;-87
2023/01/30 05:43:06;;;;;;;26.98;4.00;;;6.50;99.90;;;;;;4662535;30;20786;-86
2023/01/30 05:45:50;;;;;;;34.08;5.45;;;6.50;99.90;;;;;;4669358;30;20049;-88
2023/01/30 05:48:25;;;;;;;;;;;6.50;99.90;;;;;;4653942;30;20101;-88
2023/01/30 05:50:55;;;;;;;22.75;4.18;;;6.40;99.90;;;;;;4653513;30;19931;-87
2023/01/30 05:53:31;;;;;;;22.83;3.67;;;6.40;99.90;;;;;;4679598;30;20046;-87
2023/01/30 05:56:02;;;;;;;25.00;4.32;;;6.40;99.90;;;;;;4679378;30;20385;-87
2023/01/30 05:58:31;;;;;;;26.05;4.30;;;6.40;99.90;;;;;;4681103;30;20073;-87
2023/01/30 06:01:13;;;;;;;26.55;4.03;;;6.40;99.90;;;;;;4659433;30;20046;-87
2023/01/30 06:03:38;;;;;;;27.05;4.15;;;6.30;99.90;;;;;;4670458;30;20144;-87
2023/01/30 06:06:05;;;;;;;30.50;5.00;;;6.30;99.90;;;;;;4658997;30;20121;-87
2023/01/30 06:08:48;;;;;;;31.23;4.72;;;6.20;99.90;;;;;;4660207;30;20508;-85
2023/01/30 06:11:15;;;;;;;;;;;6.30;99.90;;;;;;4665381;30;20515;-87
2023/01/30 06:14:15;;;;;;;19.02;3.22;;;6.20;99.90;;;;;;4666112;30;20018;-88
2023/01/30 06:16:43;;;;;;;22.15;3.60;;;6.20;99.90;;;;;;4661467;30;20046;-88
2023/01/30 06:19:09;;;;;;;26.48;3.88;;;6.10;99.90;;;;;;4666132;30;20054;-87
2023/01/30 06:21:38;;;;;;;23.27;3.58;;;6.20;99.90;;;;;;4675903;30;20407;-88
2023/01/30 06:24:11;;;;;;;27.90;4.28;;;6.10;99.90;;;;;;4665693;30;20073;-86
2023/01/30 06:26:43;;;;;;;27.00;3.88;;;6.10;99.90;;;;;;4677843;30;20045;-87
2023/01/30 06:29:23;;;;;;;23.90;4.05;;;6.20;99.90;;;;;;4685415;30;20057;-86
2023/01/30 06:32:08;;;;;;;27.90;4.80;;;6.10;99.90;;;;;;4683382;30;20061;-88
2023/01/30 06:34:39;;;;;;;20.27;3.33;;;6.10;99.90;;;;;;4669741;30;20046;-89
2023/01/30 06:37:08;;;;;;;25.60;4.30;;;6.10;99.90;;;;;;4665841;30;20396;-89
2023/01/30 06:42:49;;;;;;;29.50;4.53;;;6.10;99.90;;;;;;4650699;30;20065;-90
2023/01/30 06:47:52;;;;;;;29.27;4.07;;;6.10;99.90;;;;;;4670511;25;20169;-87
2023/01/30 06:50:19;;;;;;;28.27;4.30;;;6.10;99.90;;;;;;4676950;30;20050;-88
2023/01/30 06:52:51;;;;;;;24.38;3.75;;;6.10;99.90;;;;;;4668173;30;20058;-87
2023/01/30 06:55:39;;;;;;;30.50;4.28;;;6.10;99.90;;;;;;4668289;30;20057;-87
2023/01/30 06:58:14;;;;;;;35.67;4.80;;;6.10;99.90;;;;;;4652509;30;20504;-87
2023/01/30 07:00:52;;;;;;;31.48;4.28;;;6.10;99.90;;;;;;4667592;30;20125;-87
2023/01/30 07:03:33;;;;;;;27.95;3.95;;;6.10;99.90;;;;;;4652646;30;20062;-88
2023/01/30 07:08:36;;;;;;;23.40;3.92;;;6.10;99.90;;;;;;4705633;25;20486;-88
2023/01/30 07:11:04;;;;;;;25.88;4.25;;;6.10;99.90;;;;;;4686193;30;20053;-87
2023/01/30 07:13:29;;;;;;;27.63;4.40;;;6.10;99.90;;;;;;4701493;30;20053;-88
2023/01/30 07:15:57;;;;;;;36.05;4.75;;;6.10;99.90;;;;;;4686644;30;20396;-88
2023/01/30 07:18:23;;;;;;;20.48;3.92;;;6.10;99.90;;;;;;4702039;30;20141;-87
2023/01/30 07:20:49;;;;;;;29.27;4.63;;;6.10;99.90;;;;;;4685931;30;20136;-87
2023/01/30 07:23:17;;;;;;;32.15;5.03;;;6.10;99.90;;;;;;4678256;25;20058;-87
2023/01/30 07:25:55;;;;;;;26.45;4.40;;;6.10;99.90;;;;;;4663169;30;20078;-87
2023/01/30 07:28:20;;;;;;;27.48;4.13;;;6.20;99.90;;;;;;4651222;30;20061;-87
2023/01/30 07:30:52;;;;;;;24.95;4.45;;;6.10;99.90;;;;;;4668315;30;20412;-87
2023/01/30 07:33:19;;;;;;;28.40;3.70;;;6.10;99.90;;;;;;4667008;30;20068;-87
2023/01/30 07:36:12;;;;;;;34.38;5.03;;;6.10;99.90;;;;;;4651504;30;20068;-87
2023/01/30 07:38:51;;;;;;;30.35;4.72;;;6.10;99.90;;;;;;4656059;30;20080;-87
2023/01/30 07:41:20;;;;;;;33.90;5.13;;;6.20;99.90;;;;;;4668427;30;20066;-87
2023/01/30 07:44:01;;;;;;;30.02;4.32;;;6.10;99.90;;;;;;4669333;30;20049;-87
2023/01/30 07:46:45;;;;;;;33.67;4.78;;;6.20;99.90;;;;;;4669107;30;20053;-88
2023/01/30 07:49:17;;;;;;;37.60;5.18;;;6.20;99.90;;;;;;4664307;30;20055;-87
2023/01/30 07:51:43;;;;;;;30.38;4.60;;;6.20;99.90;;;;;;4675615;24;20051;-88
2023/01/30 07:54:09;;;;;;;32.47;4.47;;;6.20;99.90;;;;;;4668572;30;20064;-87
2023/01/30 07:56:34;;;;;;;29.20;4.30;;;6.20;99.90;;;;;;4683731;30;20408;-88
2023/01/30 07:59:01;;;;;;;34.53;5.03;;;6.20;99.90;;;;;;4669475;30;20514;-88
2023/01/30 08:01:43;;;;;;;36.33;5.35;;;6.20;99.90;;;;;;4668832;30;20072;-87
2023/01/30 08:04:09;;;;;;;30.10;4.55;;;6.20;99.90;;;;;;4683319;30;20534;-88
2023/01/30 08:06:37;;;;;;;26.33;4.53;;;6.30;99.90;;;;;;4668510;30;20088;-88
2023/01/30 08:09:03;;;;;;;32.72;4.35;;;6.20;99.90;;;;;;4668105;30;20069;-87
2023/01/30 08:11:29;;;;;;;29.00;4.75;;;6.20;99.90;;;;;;4668458;30;20050;-88
2023/01/30 08:13:54;;;;;;;33.53;4.97;;;6.30;99.90;;;;;;4683833;30;20133;-87
2023/01/30 08:16:20;;;;;;;28.50;4.38;;;6.30;99.90;;;;;;4683346;30;20050;-88
2023/01/30 08:18:45;;;;;;;29.20;4.22;;;6.30;99.90;;;;;;4668828;30;20090;-88
2023/01/30 08:21:11;;;;;;;24.05;4.80;;;6.30;99.90;;;;;;4669191;30;20129;-88
2023/01/30 08:23:37;;;;;;;28.65;4.75;;;6.30;99.90;;;;;;4668081;30;20058;-87
2023/01/30 08:26:05;;;;;;;36.03;4.97;;;6.30;99.90;;;;;;4684209;30;20044;-87
2023/01/30 08:28:31;;;;;;;31.63;4.78;;;6.30;99.90;;;;;;4683863;30;20478;-89
2023/01/30 08:30:57;;;;;;;32.22;4.53;;;6.30;99.90;;;;;;4683660;30;20133;-88
2023/01/30 08:33:24;;;;;;;26.40;5.05;;;6.30;99.90;;;;;;4668497;30;20438;-89
2023/01/30 08:35:50;;;;;;;36.28;5.15;;;6.30;99.90;;;;;;4667887;30;20070;-87
2023/01/30 08:38:18;;;;;;;31.83;4.72;;;6.30;99.90;;;;;;4682605;30;20045;-86
2023/01/30 08:40:51;;;;;;;35.40;4.78;;;6.40;99.90;;;;;;4668500;30;20046;-87
2023/01/30 08:43:17;;;;;;;28.70;4.53;;;6.40;99.90;;;;;;4683739;30;20100;-87
2023/01/30 08:45:45;;;;;;;31.65;5.05;;;6.40;99.90;;;;;;4682800;30;20132;-89
2023/01/30 08:48:16;;;;;;;31.05;4.80;;;6.40;99.90;;;;;;4668103;30;20054;-88
2023/01/30 08:50:41;;;;;;;36.08;4.82;;;6.40;99.90;;;;;;4677285;25;20079;-87
2023/01/30 08:53:08;;;;;;;31.70;4.93;;;6.40;99.90;;;;;;4663142;25;20092;-87
2023/01/30 08:55:35;;;;;;;37.65;5.63;;;6.40;99.90;;;;;;4668167;30;20064;-87
2023/01/30 08:58:03;;;;;;;30.42;4.88;;;6.40;99.90;;;;;;4683674;30;20050;-88
2023/01/30 09:00:32;;;;;;;29.27;4.45;;;6.40;99.90;;;;;;4682521;30;20405;-88
2023/01/30 09:03:01;;;;;;;28.88;4.45;;;6.50;99.90;;;;;;4667940;30;20061;-87
2023/01/30 09:05:42;;;;;;;33.65;5.15;;;6.50;99.90;;;;;;4675425;25;20074;-87
2023/01/30 09:08:11;;;;;;;28.58;5.22;;;6.40;99.90;;;;;;4667435;30;20141;-87
2023/01/30 09:10:49;;;;;;;29.50;4.60;;;6.50;99.90;;;;;;4666989;30;20195;-87
2023/01/30 09:13:23;;;;;;;30.98;5.00;;;6.50;99.90;;;;;;4667474;30;20484;-87
2023/01/30 09:16:02;;;;;;;29.17;5.13;;;6.50;99.90;;;;;;4668342;30;20050;-88
2023/01/30 09:18:31;;;;;;;36.55;5.22;;;6.50;99.90;;;;;;4682935;30;20065;-86
2023/01/30 09:21:11;;;;;;;29.65;4.63;;;6.60;99.90;;;;;;4682355;30;20045;-88
2023/01/30 09:23:37;;;;;;;29.85;4.70;;;6.60;99.90;;;;;;4667773;30;20068;-87
2023/01/30 09:26:15;;;;;;;36.50;5.55;;;6.70;99.90;;;;;;4682468;30;20427;-88
2023/01/30 09:28:49;;;;;;;26.13;4.82;;;6.70;99.90;;;;;;4682357;30;20515;-88
2023/01/30 09:31:15;;;;;;;33.17;5.55;;;6.70;99.90;;;;;;4665745;30;20058;-88
2023/01/30 09:33:58;;;;;;;32.63;4.97;;;6.70;99.90;;;;;;4666464;30;20120;-87
2023/01/30 09:36:30;;;;;;;30.33;4.43;;;6.80;99.90;;;;;;4667406;30;20050;-87
2023/01/30 09:39:07;;;;;;;32.33;4.90;;;6.80;99.90;;;;;;4682769;30;20045;-88
2023/01/30 09:41:38;;;;;;;31.05;5.07;;;6.80;99.90;;;;;;4666291;30;20053;-88
2023/01/30 09:44:34;;;;;;;33.67;5.57;;;6.80;99.90;;;;;;4682060;30;20045;-88
2023/01/30 09:47:47;;;;;;;28.75;4.80;;;6.90;99.90;;;;;;4650304;30;20063;-88
2023/01/30 09:50:37;;;;;;;34.83;4.45;;;6.90;99.90;;;;;;4666271;30;20072;-87
2023/01/30 09:53:16;;;;;;;30.38;4.55;;;6.90;99.90;;;;;;4652561;30;20065;-88
2023/01/30 09:55:42;;;;;;;36.38;5.70;;;6.90;99.90;;;;;;4663751;30;20058;-88
2023/01/30 09:58:20;;;;;;;34.67;5.22;;;7.00;99.90;;;;;;4682654;30;20412;-88
2023/01/30 10:00:47;;;;;;;28.10;4.53;;;7.00;99.90;;;;;;4682984;30;20054;-89
2023/01/30 10:03:37;;;;;;;27.50;4.88;;;7.00;99.90;;;;;;4666218;30;20050;-89
2023/01/30 10:06:13;;;;;;;38.20;5.50;;;6.90;99.90;;;;;;4666518;30;20066;-88
2023/01/30 10:08:49;;;;;;;34.42;5.80;;;6.90;99.90;;;;;;4680264;30;20058;-89
2023/01/30 10:11:24;;;;;;;34.97;5.20;;;7.00;99.90;;;;;;4682750;30;20049;-88
2023/01/30 10:13:56;;;;;;;31.65;4.88;;;7.00;99.90;;;;;;4667247;30;20061;-88
2023/01/30 10:16:26;;;;;;;27.65;5.43;;;7.00;99.90;;;;;;4665495;30;20669;-88
2023/01/30 10:19:00;;;;;;;30.92;5.50;;;7.00;99.90;;;;;;4651361;30;20062;-88
2023/01/30 10:21:51;;;;;;;41.55;6.68;;;7.00;99.90;;;;;;4670834;30;20046;-87
2023/01/30 10:24:51;;;;;;;33.70;5.05;;;7.00;99.90;;;;;;4666492;30;20054;-87
2023/01/30 10:27:20;;;;;;;29.42;4.90;;;7.10;99.90;;;;;;4667094;30;20393;-90
2023/01/30 10:29:55;;;;;;;32.42;5.35;;;7.10;99.90;;;;;;4666855;30;20073;-90
2023/01/30 10:32:32;;;;;;;31.55;5.40;;;7.20;99.90;;;;;;4682154;30;20824;-88
2023/01/30 10:35:12;;;;;;;29.02;5.28;;;7.20;99.90;;;;;;4667571;30;20124;-89
2023/01/30 10:38:02;;;;;;;27.35;4.45;;;7.20;99.90;;;;;;4666919;30;20141;-91
2023/01/30 10:40:43;;;;;;;28.65;4.63;;;7.30;99.90;;;;;;4667299;30;20527;-90
2023/01/30 10:43:34;;;;;;;31.50;5.00;;;7.30;99.90;;;;;;4682735;30;20046;-88
2023/01/30 10:46:13;;;;;;;30.23;4.90;;;7.30;99.90;;;;;;4666965;30;20093;-91
2023/01/30 10:48:50;;;;;;;35.35;5.32;;;7.40;99.90;;;;;;4682520;30;20054;-88
2023/01/30 10:51:25;;;;;;;23.42;4.85;;;7.40;99.90;;;;;;4666200;30;20054;-87
2023/01/30 10:53:53;;;;;;;28.48;4.78;;;7.40;99.90;;;;;;4667176;30;20586;-87
2023/01/30 10:56:49;;;;;;;22.75;4.13;;;7.40;99.90;;;;;;4666772;30;20141;-90
2023/01/30 10:59:21;;;;;;;19.20;3.53;;;7.40;99.90;;;;;;4662610;30;20069;-89
2023/01/30 11:02:17;;;;;;;13.88;2.78;;;7.40;99.90;;;;;;4682489;30;20046;-89
2023/01/30 11:04:49;;;;;;;15.63;2.92;;;7.30;99.90;;;;;;4661004;30;20058;-88
2023/01/30 11:07:15;;;;;;;20.17;3.05;;;7.10;99.90;;;;;;4682999;30;20069;-88
2023/01/30 11:09:49;;;;;;;21.92;4.15;;;7.10;99.90;;;;;;4669664;30;20050;-88
2023/01/30 11:12:15;;;;;;;21.55;4.00;;;7.00;99.90;;;;;;4669201;30;20057;-87
2023/01/30 11:15:00;;;;;;;19.05;3.50;;;6.90;99.90;;;;;;4684718;30;20069;-87
2023/01/30 11:17:37;;;;;;;22.63;3.80;;;6.90;99.90;;;;;;4685078;30;20061;-87
2023/01/30 11:20:14;;;;;;;18.08;3.17;;;6.80;99.90;;;;;;4669025;30;20097;-88
2023/01/30 11:22:49;;;;;;;20.92;3.40;;;6.80;99.90;;;;;;4684955;30;20058;-88
2023/01/30 11:25:21;;;;;;;21.58;3.22;;;6.80;99.90;;;;;;4669376;30;20050;-88
2023/01/30 11:27:54;;;;;;;16.58;3.20;;;6.80;99.90;;;;;;4683260;30;20053;-87
2023/01/30 11:30:23;;;;;;;18.73;3.22;;;6.80;99.90;;;;;;4686316;30;20056;-89
2023/01/30 11:32:49;;;;;;;17.35;2.90;;;6.90;99.90;;;;;;4668834;30;20479;-87
2023/01/30 11:35:18;;;;;;;17.05;3.25;;;6.90;99.90;;;;;;4682213;30;20068;-87
2023/01/30 11:37:44;;;;;;;19.50;2.92;;;7.00;99.90;;;;;;4669865;30;20054;-87
2023/01/30 11:40:24;;;;;;;17.15;3.25;;;7.00;99.90;;;;;;4684075;30;20504;-87
2023/01/30 11:42:51;;;;;;;23.20;3.08;;;7.00;99.90;;;;;;4686309;30;20061;-89
2023/01/30 11:45:19;;;;;;;20.08;2.90;;;7.00;99.90;;;;;;4678742;30;20050;-88
2023/01/30 11:47:58;;;;;;;18.20;3.13;;;7.00;99.90;;;;;;4668819;30;20094;-88
2023/01/30 11:50:43;;;;;;;20.10;3.00;;;7.00;99.90;;;;;;4668260;30;20053;-88
2023/01/30 11:53:18;;;;;;;13.93;2.67;;;7.00;99.90;;;;;;4665059;30;20050;-87
2023/01/30 11:55:45;;;;;;;18.45;2.70;;;7.00;99.90;;;;;;4668166;30;20061;-87
2023/01/30 11:58:13;;;;;;;15.35;2.53;;;6.90;99.90;;;;;;4668144;30;20515;-87
2023/01/30 12:00:46;;;;;;;13.20;2.42;;;6.90;99.90;;;;;;4669360;30;20431;-88
2023/01/30 12:03:16;;;;;;;10.45;1.90;;;6.90;99.90;;;;;;4667828;30;20542;-88
2023/01/30 12:05:46;;;;;;;13.93;1.92;;;6.80;99.90;;;;;;4668375;30;20081;-88
2023/01/30 12:08:19;;;;;;;18.80;2.88;;;6.80;99.90;;;;;;4667352;30;20523;-86
2023/01/30 12:10:53;;;;;;;13.55;2.20;;;6.80;99.90;;;;;;4668460;30;20053;-88
2023/01/30 12:13:42;;;;;;;12.63;2.03;;;6.80;99.90;;;;;;4683716;30;20042;-89
2023/01/30 12:16:26;;;;;;;10.10;1.83;;;6.90;99.90;;;;;;4663681;30;20068;-88
2023/01/30 12:19:05;;;;;;;10.38;1.80;;;6.90;99.90;;;;;;4668142;30;20137;-89
2023/01/30 12:21:43;;;;;;;12.80;2.00;;;7.00;99.90;;;;;;4667758;30;20061;-89
2023/01/30 12:24:24;;;;;;;16.83;2.40;;;7.00;99.90;;;;;;4667275;30;20049;-89
2023/01/30 12:27:08;;;;;;;16.45;2.70;;;7.00;99.90;;;;;;4667315;30;20050;-89
2023/01/30 12:30:23;;;;;;;17.38;2.67;;;7.00;99.90;;;;;;4674235;30;20060;-88
2023/01/30 12:32:50;;;;;;;15.70;2.65;;;7.10;99.90;;;;;;4613205;31;20048;-88
2023/01/30 12:35:26;;;;;;;19.25;3.00;;;7.10;99.90;;;;;;4600265;31;20115;-88
2023/01/30 12:38:22;;;;;;;16.98;2.75;;;7.10;99.90;;;;;;4636029;30;20062;-88
2023/01/30 12:41:03;;;;;;;24.33;3.10;;;7.10;99.90;;;;;;4668792;30;20092;-88
2023/01/30 12:44:17;;;;;;;16.50;2.88;;;7.10;99.90;;;;;;4667939;30;20149;-88
2023/01/30 12:47:16;;;;;;;17.42;3.05;;;7.20;99.90;;;;;;4664983;30;20065;-88
2023/01/30 12:49:45;;;;;;;15.50;3.05;;;7.10;99.90;;;;;;4676674;30;20093;-88
2023/01/30 12:52:30;;;;;;;17.20;3.08;;;7.10;99.90;;;;;;4667439;30;20065;-87
2023/01/30 12:55:15;;;;;;;22.00;3.58;;;7.10;99.90;;;;;;4667932;30;20046;-88
2023/01/30 12:58:10;;;;;;;22.23;3.67;;;7.20;99.90;;;;;;4667505;30;20511;-87
2023/01/30 13:01:01;;;;;;;22.98;3.80;;;7.20;99.90;;;;;;4683631;30;20563;-88
2023/01/30 13:03:33;;;;;;;20.98;3.83;;;7.20;99.90;;;;;;4667853;30;20054;-87
2023/01/30 13:06:38;;;;;;;25.02;3.70;;;7.20;99.90;;;;;;4667299;30;20070;-87
2023/01/30 13:09:32;;;;;;;15.68;2.97;;;7.30;99.90;;;;;;4675984;30;20153;-88
2023/01/30 13:12:39;;;;;;;17.73;3.20;;;7.30;99.90;;;;;;4668669;30;20531;-87
2023/01/30 13:15:45;;;;;;;20.77;3.28;;;7.30;99.90;;;;;;4685295;24;20065;-88
2023/01/30 13:18:31;;;;;;;20.58;3.38;;;7.30;99.90;;;;;;4644789;25;20057;-88
2023/01/30 13:21:24;;;;;;;24.70;3.58;;;7.40;99.90;;;;;;4648083;30;20065;-87
2023/01/30 13:24:24;;;;;;;21.85;3.50;;;7.40;99.90;;;;;;4648468;30;20074;-88
2023/01/30 13:29:37;;;;;;;24.80;4.00;;;7.40;99.90;;;;;;4702978;25;20079;-87
2023/01/30 13:32:26;;;;;;;23.35;3.70;;;7.50;99.90;;;;;;4685165;30;20046;-88
2023/01/30 13:34:57;;;;;;;26.50;4.53;;;7.50;99.90;;;;;;4684595;30;20503;-87
2023/01/30 13:37:37;;;;;;;31.88;4.32;;;7.50;99.90;;;;;;4699713;30;20049;-88
2023/01/30 13:40:39;;;;;;;29.25;4.47;;;7.50;99.90;;;;;;4699693;30;20077;-88